createdAt,value
2018-09-15T00:00:28.916Z,17.23
2018-09-15T00:01:00.063Z,17.25
2018-09-15T00:01:31.174Z,17.26
2018-09-15T00:02:02.312Z,17.26
2018-09-15T00:02:33.414Z,17.25
2018-09-15T00:03:04.522Z,17.22
2018-09-15T00:03:35.636Z,17.20
2018-09-15T00:04:06.772Z,17.19
2018-09-15T00:04:37.929Z,17.18
2018-09-15T00:05:09.031Z,17.15
2018-09-15T00:05:40.161Z,17.13
2018-09-15T00:06:11.312Z,17.11
2018-09-15T00:06:42.421Z,17.11
2018-09-15T00:07:13.530Z,17.07
2018-09-15T00:07:44.657Z,17.08
2018-09-15T00:08:15.769Z,17.07
2018-09-15T00:08:46.892Z,17.03
2018-09-15T00:09:18.028Z,17.03
2018-09-15T00:09:49.193Z,17.01
2018-09-15T00:10:20.324Z,17.00
2018-09-15T00:10:51.462Z,17.00
2018-09-15T00:11:22.632Z,17.01
2018-09-15T00:11:53.771Z,16.99
2018-09-15T00:12:24.911Z,16.97
2018-09-15T00:12:56.028Z,16.97
2018-09-15T00:13:27.148Z,17.00
2018-09-15T00:13:58.266Z,17.00
2018-09-15T00:14:29.411Z,17.00
2018-09-15T00:15:00.537Z,17.01
2018-09-15T00:15:31.655Z,16.99
2018-09-15T00:16:02.774Z,16.99
2018-09-15T00:16:33.938Z,17.00
2018-09-15T00:17:05.058Z,17.00
2018-09-15T00:17:36.167Z,17.00
2018-09-15T00:18:07.281Z,16.99
2018-09-15T00:18:38.397Z,17.00
2018-09-15T00:19:09.520Z,16.99
2018-09-15T00:19:40.664Z,17.02
2018-09-15T00:20:11.847Z,17.03
2018-09-15T00:20:42.956Z,17.04
2018-09-15T00:21:14.124Z,17.03
2018-09-15T00:21:45.236Z,17.03
2018-09-15T00:22:16.360Z,16.99
2018-09-15T00:22:47.492Z,16.99
2018-09-15T00:23:18.613Z,17.00
2018-09-15T00:23:49.718Z,16.99
2018-09-15T00:24:20.844Z,16.98
2018-09-15T00:24:51.976Z,16.99
2018-09-15T00:25:23.124Z,16.98
2018-09-15T00:25:54.245Z,16.99
2018-09-15T00:26:25.407Z,17.02
2018-09-15T00:26:56.552Z,17.03
2018-09-15T00:27:27.689Z,17.04
2018-09-15T00:27:58.796Z,17.05
2018-09-15T00:28:29.943Z,17.04
2018-09-15T00:29:01.062Z,17.06
2018-09-15T00:29:32.185Z,17.06
2018-09-15T00:30:03.328Z,17.05
2018-09-15T00:30:34.457Z,17.03
2018-09-15T00:31:05.587Z,17.03
2018-09-15T00:31:36.749Z,17.02
2018-09-15T00:32:07.866Z,17.03
2018-09-15T00:32:39.008Z,17.05
2018-09-15T00:33:10.160Z,17.06
2018-09-15T00:33:41.320Z,17.06
2018-09-15T00:34:12.450Z,17.06
2018-09-15T00:34:43.555Z,17.07
2018-09-15T00:35:14.680Z,17.05
2018-09-15T00:35:45.836Z,17.05
2018-09-15T00:36:16.942Z,17.05
2018-09-15T00:36:48.062Z,17.04
2018-09-15T00:37:19.185Z,17.03
2018-09-15T00:37:50.298Z,17.02
2018-09-15T00:38:21.466Z,17.00
2018-09-15T00:38:52.856Z,17.01
2018-09-15T00:39:23.958Z,17.01
2018-09-15T00:39:55.129Z,17.00
2018-09-15T00:40:26.267Z,17.01
2018-09-15T00:40:57.400Z,17.04
2018-09-15T00:41:28.511Z,17.09
2018-09-15T00:41:59.646Z,17.14
2018-09-15T00:42:30.750Z,17.15
2018-09-15T00:43:01.865Z,17.17
2018-09-15T00:43:33.040Z,17.18
2018-09-15T00:44:04.159Z,17.20
2018-09-15T00:44:35.291Z,17.23
2018-09-15T00:45:06.400Z,17.25
2018-09-15T00:45:37.502Z,17.27
2018-09-15T00:46:08.598Z,17.32
2018-09-15T00:46:39.722Z,17.36
2018-09-15T00:47:10.864Z,17.37
2018-09-15T00:47:41.991Z,17.40
2018-09-15T00:48:13.101Z,17.41
2018-09-15T00:48:44.277Z,17.41
2018-09-15T00:49:15.419Z,17.41
2018-09-15T00:49:46.567Z,17.40
2018-09-15T00:50:17.662Z,17.41
2018-09-15T00:50:48.806Z,17.41
2018-09-15T00:51:19.920Z,17.41
2018-09-15T00:51:51.064Z,17.43
2018-09-15T00:52:22.175Z,17.42
2018-09-15T00:52:53.284Z,17.44
2018-09-15T00:53:24.453Z,17.45
2018-09-15T00:53:55.604Z,17.46
2018-09-15T00:54:26.724Z,17.48
2018-09-15T00:54:57.845Z,17.52
2018-09-15T00:55:28.967Z,17.54
2018-09-15T00:56:00.077Z,17.54
2018-09-15T00:56:31.192Z,17.55
2018-09-15T00:57:02.318Z,17.56
2018-09-15T00:57:33.435Z,17.57
2018-09-15T00:58:04.542Z,17.56
2018-09-15T00:58:35.702Z,17.62
2018-09-15T00:59:06.812Z,17.61
2018-09-15T00:59:37.932Z,17.60
2018-09-15T01:00:09.048Z,17.65
2018-09-15T01:00:40.160Z,17.65
2018-09-15T01:01:11.263Z,17.62
2018-09-15T01:01:42.373Z,17.61
2018-09-15T01:02:13.516Z,17.61
2018-09-15T01:02:44.634Z,17.61
2018-09-15T01:03:15.806Z,17.59
2018-09-15T01:03:46.922Z,17.59
2018-09-15T01:04:18.024Z,17.56
2018-09-15T01:04:49.126Z,17.56
2018-09-15T01:05:20.271Z,17.54
2018-09-15T01:05:51.384Z,17.51
2018-09-15T01:06:22.492Z,17.51
2018-09-15T01:06:53.582Z,17.50
2018-09-15T01:07:24.696Z,17.34
2018-09-15T01:07:55.855Z,17.47
2018-09-15T01:08:26.976Z,17.46
2018-09-15T01:08:58.077Z,17.44
2018-09-15T01:09:29.175Z,17.42
2018-09-15T01:10:00.302Z,17.41
2018-09-15T01:10:31.439Z,17.40
2018-09-15T01:11:02.571Z,17.36
2018-09-15T01:11:33.697Z,17.33
2018-09-15T01:12:04.887Z,17.33
2018-09-15T01:12:36.011Z,17.32
2018-09-15T01:13:07.127Z,17.32
2018-09-15T01:13:38.246Z,17.31
2018-09-15T01:14:09.454Z,17.29
2018-09-15T01:14:40.551Z,17.26
2018-09-15T01:15:11.674Z,17.22
2018-09-15T01:15:42.791Z,17.24
2018-09-15T01:16:13.902Z,17.23
2018-09-15T01:16:45.031Z,17.23
2018-09-15T01:17:16.189Z,17.23
2018-09-15T01:17:47.296Z,17.23
2018-09-15T01:18:18.406Z,17.22
2018-09-15T01:18:49.520Z,17.23
2018-09-15T01:19:20.666Z,17.22
2018-09-15T01:19:51.807Z,17.24
2018-09-15T01:20:22.913Z,17.25
2018-09-15T01:20:54.021Z,17.26
2018-09-15T01:21:25.147Z,17.26
2018-09-15T01:21:56.278Z,17.25
2018-09-15T01:22:27.433Z,17.25
2018-09-15T01:22:58.562Z,17.25
2018-09-15T01:23:29.679Z,17.23
2018-09-15T01:24:00.797Z,17.22
2018-09-15T01:24:31.913Z,17.21
2018-09-15T01:25:03.052Z,17.23
2018-09-15T01:25:34.161Z,17.24
2018-09-15T01:26:05.330Z,17.22
2018-09-15T01:26:36.420Z,17.19
2018-09-15T01:27:07.590Z,17.20
2018-09-15T01:27:38.800Z,17.19
2018-09-15T01:28:09.901Z,17.18
2018-09-15T01:28:41.036Z,17.18
2018-09-15T01:29:12.156Z,17.18
2018-09-15T01:29:43.250Z,17.18
2018-09-15T01:30:14.354Z,17.19
2018-09-15T01:30:45.473Z,17.19
2018-09-15T01:31:16.580Z,17.20
2018-09-15T01:31:47.694Z,17.20
2018-09-15T01:32:18.863Z,17.20
2018-09-15T01:32:49.986Z,17.18
2018-09-15T01:33:21.164Z,17.18
2018-09-15T01:33:52.298Z,17.16
2018-09-15T01:34:23.407Z,17.14
2018-09-15T01:34:54.504Z,17.09
2018-09-15T01:35:25.640Z,17.09
2018-09-15T01:35:56.747Z,17.07
2018-09-15T01:36:27.882Z,17.07
2018-09-15T01:36:59.022Z,17.08
2018-09-15T01:37:30.179Z,17.09
2018-09-15T01:38:01.315Z,17.11
2018-09-15T01:38:32.415Z,17.12
2018-09-15T01:39:03.541Z,17.07
2018-09-15T01:39:34.657Z,17.00
2018-09-15T01:40:05.780Z,16.94
2018-09-15T01:40:36.907Z,16.92
2018-09-15T01:41:08.023Z,16.93
2018-09-15T01:41:39.137Z,16.96
2018-09-15T01:42:10.234Z,16.98
2018-09-15T01:42:41.353Z,16.97
2018-09-15T01:43:12.544Z,16.97
2018-09-15T01:43:43.659Z,16.93
2018-09-15T01:44:14.788Z,16.93
2018-09-15T01:44:45.900Z,16.93
2018-09-15T01:45:16.985Z,16.94
2018-09-15T01:45:48.092Z,16.98
2018-09-15T01:46:19.203Z,16.97
2018-09-15T01:46:50.308Z,16.99
2018-09-15T01:47:21.415Z,16.99
2018-09-15T01:47:52.563Z,17.00
2018-09-15T01:48:23.742Z,17.01
2018-09-15T01:48:54.872Z,17.01
2018-09-15T01:49:26.023Z,17.04
2018-09-15T01:49:57.137Z,17.04
2018-09-15T01:50:28.251Z,17.05
2018-09-15T01:50:59.373Z,17.06
2018-09-15T01:51:30.520Z,17.07
2018-09-15T01:52:01.627Z,17.08
2018-09-15T01:52:32.753Z,17.11
2018-09-15T01:53:03.864Z,17.13
2018-09-15T01:53:34.963Z,17.11
2018-09-15T01:54:06.097Z,17.10
2018-09-15T01:54:37.212Z,17.10
2018-09-15T01:55:08.367Z,17.09
2018-09-15T01:55:39.507Z,17.08
2018-09-15T01:56:10.610Z,17.08
2018-09-15T01:56:41.710Z,17.05
2018-09-15T01:57:12.802Z,17.04
2018-09-15T01:57:43.919Z,17.03
2018-09-15T01:58:15.047Z,17.02
2018-09-15T01:58:46.193Z,17.01
2018-09-15T01:59:17.304Z,17.01
2018-09-15T01:59:48.411Z,16.99
2018-09-15T02:00:19.566Z,16.98
2018-09-15T02:00:50.657Z,16.95
2018-09-15T02:01:21.802Z,16.94
2018-09-15T02:01:52.920Z,16.92
2018-09-15T02:02:24.051Z,16.93
2018-09-15T02:02:55.165Z,16.92
2018-09-15T02:03:26.270Z,16.90
2018-09-15T02:03:57.402Z,16.89
2018-09-15T02:04:28.506Z,16.91
2018-09-15T02:04:59.638Z,16.89
2018-09-15T02:05:30.770Z,16.90
2018-09-15T02:06:01.886Z,16.92
2018-09-15T02:06:33.020Z,16.92
2018-09-15T02:07:04.211Z,16.92
2018-09-15T02:07:35.342Z,16.92
2018-09-15T02:08:06.449Z,16.91
2018-09-15T02:08:37.563Z,16.92
2018-09-15T02:09:08.686Z,16.90
2018-09-15T02:09:39.838Z,16.90
2018-09-15T02:10:10.964Z,16.89
2018-09-15T02:10:42.082Z,16.91
2018-09-15T02:11:13.177Z,16.90
2018-09-15T02:11:44.285Z,16.92
2018-09-15T02:12:15.447Z,16.93
2018-09-15T02:12:46.614Z,16.96
2018-09-15T02:13:17.721Z,16.95
2018-09-15T02:13:48.836Z,16.95
2018-09-15T02:14:20.009Z,16.95
2018-09-15T02:14:51.107Z,16.95
2018-09-15T02:15:22.254Z,16.94
2018-09-15T02:15:53.359Z,16.94
2018-09-15T02:16:24.472Z,16.92
2018-09-15T02:16:55.595Z,16.93
2018-09-15T02:17:26.703Z,16.90
2018-09-15T02:17:57.852Z,16.85
2018-09-15T02:18:28.954Z,16.85
2018-09-15T02:19:00.056Z,16.86
2018-09-15T02:19:31.160Z,16.88
2018-09-15T02:20:02.283Z,16.88
2018-09-15T02:20:33.410Z,16.88
2018-09-15T02:21:04.551Z,16.90
2018-09-15T02:21:35.660Z,16.89
2018-09-15T02:22:06.775Z,16.89
2018-09-15T02:22:37.967Z,16.90
2018-09-15T02:23:09.109Z,16.90
2018-09-15T02:23:40.209Z,16.89
2018-09-15T02:24:11.314Z,16.90
2018-09-15T02:24:42.424Z,16.89
2018-09-15T02:25:13.562Z,16.91
2018-09-15T02:25:44.657Z,16.93
2018-09-15T02:26:15.774Z,16.92
2018-09-15T02:26:46.884Z,16.95
2018-09-15T02:27:17.987Z,16.95
2018-09-15T02:27:49.124Z,16.94
2018-09-15T02:28:20.311Z,16.93
2018-09-15T02:28:51.514Z,16.92
2018-09-15T02:29:22.603Z,16.92
2018-09-15T02:29:53.714Z,16.92
2018-09-15T02:30:24.839Z,16.92
2018-09-15T02:30:55.977Z,16.92
2018-09-15T02:31:27.115Z,16.75
2018-09-15T02:31:58.232Z,16.94
2018-09-15T02:32:29.336Z,16.95
2018-09-15T02:33:00.456Z,16.94
2018-09-15T02:33:31.626Z,16.92
2018-09-15T02:34:02.723Z,16.93
2018-09-15T02:34:33.826Z,16.93
2018-09-15T02:35:04.946Z,16.93
2018-09-15T02:35:36.081Z,16.93
2018-09-15T02:36:07.195Z,16.94
2018-09-15T02:36:38.306Z,16.92
2018-09-15T02:37:09.416Z,16.94
2018-09-15T02:37:40.519Z,16.94
2018-09-15T02:38:11.640Z,16.95
2018-09-15T02:38:42.804Z,16.95
2018-09-15T02:39:13.907Z,16.96
2018-09-15T02:39:45.025Z,16.99
2018-09-15T02:40:16.150Z,16.98
2018-09-15T02:40:47.251Z,16.96
2018-09-15T02:41:18.392Z,16.95
2018-09-15T02:41:49.494Z,16.78
2018-09-15T02:42:20.641Z,16.93
2018-09-15T02:42:51.774Z,16.93
2018-09-15T02:43:22.891Z,16.95
2018-09-15T02:43:54.029Z,16.94
2018-09-15T02:44:25.144Z,16.94
2018-09-15T02:44:56.275Z,16.95
2018-09-15T02:45:27.425Z,16.96
2018-09-15T02:45:58.594Z,16.97
2018-09-15T02:46:29.729Z,16.98
2018-09-15T02:47:00.891Z,16.96
2018-09-15T02:47:31.993Z,16.96
2018-09-15T02:48:03.104Z,16.96
2018-09-15T02:48:34.215Z,16.93
2018-09-15T02:49:05.364Z,16.92
2018-09-15T02:49:36.500Z,16.88
2018-09-15T02:50:07.616Z,16.82
2018-09-15T02:50:38.720Z,16.83
2018-09-15T02:51:09.840Z,16.83
2018-09-15T02:51:40.999Z,16.83
2018-09-15T02:52:12.149Z,16.84
2018-09-15T02:52:43.256Z,16.84
2018-09-15T02:53:14.394Z,16.84
2018-09-15T02:53:45.501Z,16.83
2018-09-15T02:54:16.639Z,16.83
2018-09-15T02:54:47.769Z,16.83
2018-09-15T02:55:18.892Z,16.82
2018-09-15T02:55:50.023Z,16.83
2018-09-15T02:56:21.118Z,16.84
2018-09-15T02:56:52.255Z,16.84
2018-09-15T02:57:23.431Z,16.84
2018-09-15T02:57:54.566Z,16.85
2018-09-15T02:58:25.676Z,16.86
2018-09-15T02:58:56.802Z,16.84
2018-09-15T02:59:27.900Z,16.82
2018-09-15T02:59:59.041Z,16.79
2018-09-15T03:00:30.160Z,16.76
2018-09-15T03:01:01.271Z,16.74
2018-09-15T03:01:32.385Z,16.71
2018-09-15T03:02:03.514Z,16.68
2018-09-15T03:02:34.676Z,16.66
2018-09-15T03:03:05.790Z,16.65
2018-09-15T03:03:36.895Z,16.64
2018-09-15T03:04:08.001Z,16.62
2018-09-15T03:04:39.128Z,16.60
2018-09-15T03:05:10.287Z,16.57
2018-09-15T03:05:41.401Z,16.52
2018-09-15T03:06:12.503Z,16.50
2018-09-15T03:06:43.639Z,16.49
2018-09-15T03:07:14.743Z,16.47
2018-09-15T03:07:45.875Z,16.45
2018-09-15T03:08:16.998Z,16.41
2018-09-15T03:08:48.100Z,16.40
2018-09-15T03:09:19.202Z,16.37
2018-09-15T03:09:50.345Z,16.32
2018-09-15T03:10:21.442Z,16.31
2018-09-15T03:10:52.619Z,16.31
2018-09-15T03:11:23.724Z,16.33
2018-09-15T03:11:54.826Z,16.35
2018-09-15T03:12:25.942Z,16.38
2018-09-15T03:12:57.068Z,16.38
2018-09-15T03:13:28.172Z,16.38
2018-09-15T03:13:59.295Z,16.36
2018-09-15T03:14:30.422Z,16.35
2018-09-15T03:15:01.556Z,16.32
2018-09-15T03:15:32.668Z,16.27
2018-09-15T03:16:03.826Z,16.26
2018-09-15T03:16:34.941Z,16.24
2018-09-15T03:17:06.070Z,16.24
2018-09-15T03:17:37.183Z,16.23
2018-09-15T03:18:08.352Z,16.24
2018-09-15T03:18:39.476Z,16.24
2018-09-15T03:19:10.603Z,16.23
2018-09-15T03:19:41.781Z,16.22
2018-09-15T03:20:12.902Z,16.21
2018-09-15T03:20:44.007Z,16.19
2018-09-15T03:21:15.152Z,16.17
2018-09-15T03:21:46.305Z,16.17
2018-09-15T03:22:17.419Z,16.15
2018-09-15T03:22:48.540Z,16.12
2018-09-15T03:23:19.678Z,16.10
2018-09-15T03:23:50.846Z,16.06
2018-09-15T03:24:21.960Z,16.05
2018-09-15T03:24:53.062Z,16.07
2018-09-15T03:25:24.172Z,16.07
2018-09-15T03:25:55.300Z,16.08
2018-09-15T03:26:26.414Z,16.10
2018-09-15T03:26:57.555Z,16.09
2018-09-15T03:27:28.705Z,16.07
2018-09-15T03:27:59.840Z,16.06
2018-09-15T03:28:30.940Z,16.05
2018-09-15T03:29:02.082Z,16.05
2018-09-15T03:29:33.208Z,16.05
2018-09-15T03:30:04.310Z,16.05
2018-09-15T03:30:35.406Z,16.06
2018-09-15T03:31:06.527Z,16.06
2018-09-15T03:31:37.694Z,16.08
2018-09-15T03:32:08.804Z,16.07
2018-09-15T03:32:39.902Z,16.09
2018-09-15T03:33:11.015Z,16.07
2018-09-15T03:33:42.107Z,16.06
2018-09-15T03:34:13.233Z,16.04
2018-09-15T03:34:44.365Z,16.00
2018-09-15T03:35:15.491Z,16.00
2018-09-15T03:35:46.628Z,15.98
2018-09-15T03:36:17.744Z,15.96
2018-09-15T03:36:48.888Z,15.96
2018-09-15T03:37:19.988Z,15.95
2018-09-15T03:37:51.093Z,15.92
2018-09-15T03:38:22.208Z,15.91
2018-09-15T03:38:53.340Z,15.88
2018-09-15T03:39:24.447Z,15.86
2018-09-15T03:39:55.584Z,15.85
2018-09-15T03:40:26.699Z,15.88
2018-09-15T03:40:57.809Z,15.93
2018-09-15T03:41:29.067Z,15.97
2018-09-15T03:42:00.175Z,15.99
2018-09-15T03:42:31.310Z,15.92
2018-09-15T03:43:02.424Z,15.97
2018-09-15T03:43:33.524Z,15.97
2018-09-15T03:44:04.647Z,16.00
2018-09-15T03:44:35.745Z,16.02
2018-09-15T03:45:06.855Z,16.01
2018-09-15T03:45:37.982Z,15.91
2018-09-15T03:46:09.123Z,15.93
2018-09-15T03:46:40.265Z,15.93
2018-09-15T03:47:11.379Z,15.96
2018-09-15T03:47:42.488Z,15.96
2018-09-15T03:48:13.607Z,15.94
2018-09-15T03:48:44.726Z,15.95
2018-09-15T03:49:15.839Z,15.93
2018-09-15T03:49:47.011Z,15.93
2018-09-15T03:50:18.143Z,15.90
2018-09-15T03:50:49.269Z,15.86
2018-09-15T03:51:20.376Z,15.82
2018-09-15T03:51:51.484Z,15.79
2018-09-15T03:52:22.582Z,15.78
2018-09-15T03:52:53.696Z,15.78
2018-09-15T03:53:24.841Z,15.78
2018-09-15T03:53:55.977Z,15.75
2018-09-15T03:54:27.104Z,15.73
2018-09-15T03:54:58.215Z,15.70
2018-09-15T03:55:29.317Z,15.69
2018-09-15T03:56:00.460Z,15.66
2018-09-15T03:56:31.599Z,15.64
2018-09-15T03:57:02.730Z,15.64
2018-09-15T03:57:33.824Z,15.61
2018-09-15T03:58:04.934Z,15.62
2018-09-15T03:58:36.051Z,15.67
2018-09-15T03:59:07.155Z,15.71
2018-09-15T03:59:38.260Z,15.71
2018-09-15T04:00:09.391Z,15.71
2018-09-15T04:00:40.532Z,15.69
2018-09-15T04:01:11.654Z,15.71
2018-09-15T04:01:42.808Z,15.70
2018-09-15T04:02:13.945Z,15.66
2018-09-15T04:02:45.064Z,15.64
2018-09-15T04:03:16.188Z,15.64
2018-09-15T04:03:47.302Z,15.61
2018-09-15T04:04:18.408Z,15.58
2018-09-15T04:04:49.512Z,15.56
2018-09-15T04:05:20.634Z,15.55
2018-09-15T04:05:51.744Z,15.55
2018-09-15T04:06:22.887Z,15.55
2018-09-15T04:06:54.055Z,15.55
2018-09-15T04:07:25.166Z,15.53
2018-09-15T04:07:56.277Z,15.49
2018-09-15T04:08:27.388Z,15.46
2018-09-15T04:08:58.566Z,15.44
2018-09-15T04:09:29.677Z,15.41
2018-09-15T04:10:00.815Z,15.38
2018-09-15T04:10:31.937Z,15.35
2018-09-15T04:11:03.034Z,15.34
2018-09-15T04:11:34.198Z,15.35
2018-09-15T04:12:05.337Z,15.35
2018-09-15T04:12:36.449Z,15.37
2018-09-15T04:13:07.569Z,15.39
2018-09-15T04:13:38.761Z,15.40
2018-09-15T04:14:09.895Z,15.41
2018-09-15T04:14:41.000Z,15.40
2018-09-15T04:15:12.127Z,15.39
2018-09-15T04:15:43.267Z,15.38
2018-09-15T04:16:14.400Z,15.39
2018-09-15T04:16:45.601Z,15.41
2018-09-15T04:17:16.713Z,15.48
2018-09-15T04:17:47.828Z,15.56
2018-09-15T04:18:18.947Z,15.68
2018-09-15T04:18:50.101Z,15.79
2018-09-15T04:19:21.223Z,15.93
2018-09-15T04:19:52.322Z,16.05
2018-09-15T04:20:23.450Z,16.19
2018-09-15T04:20:54.584Z,16.32
2018-09-15T04:21:25.718Z,16.43
2018-09-15T04:21:56.876Z,16.53
2018-09-15T04:22:27.990Z,16.66
2018-09-15T04:22:59.099Z,16.76
2018-09-15T04:23:30.225Z,16.88
2018-09-15T04:24:01.381Z,16.99
2018-09-15T04:24:32.505Z,17.10
2018-09-15T04:25:03.610Z,17.23
2018-09-15T04:25:34.735Z,17.28
2018-09-15T04:26:05.840Z,17.38
2018-09-15T04:26:36.945Z,17.46
2018-09-15T04:27:08.046Z,17.57
2018-09-15T04:27:39.199Z,17.65
2018-09-15T04:28:10.323Z,17.74
2018-09-15T04:28:41.455Z,17.81
2018-09-15T04:29:12.600Z,17.90
2018-09-15T04:29:43.704Z,18.00
2018-09-15T04:30:14.835Z,18.08
2018-09-15T04:30:45.935Z,18.17
2018-09-15T04:31:17.044Z,18.31
2018-09-15T04:31:48.146Z,18.41
2018-09-15T04:32:19.266Z,18.52
2018-09-15T04:32:50.392Z,18.62
2018-09-15T04:33:21.504Z,18.72
2018-09-15T04:33:52.648Z,18.82
2018-09-15T04:34:23.769Z,18.92
2018-09-15T04:34:54.926Z,19.00
2018-09-15T04:35:26.058Z,19.10
2018-09-15T04:35:57.172Z,19.21
2018-09-15T04:36:28.280Z,19.27
2018-09-15T04:36:59.389Z,19.27
2018-09-15T04:37:30.495Z,19.28
2018-09-15T04:38:01.670Z,19.26
2018-09-15T04:38:32.781Z,19.29
2018-09-15T04:39:03.891Z,19.36
2018-09-15T04:39:35.024Z,19.46
2018-09-15T04:40:06.146Z,19.58
2018-09-15T04:40:37.316Z,19.72
2018-09-15T04:41:08.438Z,19.82
2018-09-15T04:41:39.583Z,19.89
2018-09-15T04:42:10.686Z,19.94
2018-09-15T04:42:41.807Z,20.02
2018-09-15T04:43:12.936Z,20.09
2018-09-15T04:43:44.052Z,20.14
2018-09-15T04:44:15.170Z,20.15
2018-09-15T04:44:46.315Z,20.16
2018-09-15T04:45:17.447Z,20.20
2018-09-15T04:45:48.587Z,20.25
2018-09-15T04:46:19.704Z,20.31
2018-09-15T04:46:50.818Z,20.37
2018-09-15T04:47:21.931Z,20.42
2018-09-15T04:47:53.039Z,20.40
2018-09-15T04:48:24.190Z,20.40
2018-09-15T04:48:55.345Z,20.41
2018-09-15T04:49:26.489Z,20.46
2018-09-15T04:49:57.631Z,20.53
2018-09-15T04:50:28.763Z,20.53
2018-09-15T04:50:59.955Z,20.56
2018-09-15T04:51:31.063Z,20.54
2018-09-15T04:52:02.232Z,20.54
2018-09-15T04:52:33.443Z,20.54
2018-09-15T04:53:04.495Z,20.54
2018-09-15T04:53:35.607Z,20.57
2018-09-15T04:54:06.718Z,20.59
2018-09-15T04:54:37.829Z,20.65
2018-09-15T04:55:08.949Z,20.69
2018-09-15T04:55:40.061Z,20.75
2018-09-15T04:56:11.207Z,20.78
2018-09-15T04:56:42.328Z,20.83
2018-09-15T04:57:13.511Z,20.82
2018-09-15T04:57:44.664Z,20.79
2018-09-15T04:58:15.820Z,20.84
2018-09-15T04:58:46.963Z,20.88
2018-09-15T04:59:18.104Z,20.94
2018-09-15T04:59:49.222Z,20.99
2018-09-15T05:00:20.349Z,21.01
2018-09-15T05:00:51.475Z,21.01
2018-09-15T05:01:22.586Z,21.05
2018-09-15T05:01:53.728Z,21.08
2018-09-15T05:02:24.906Z,21.15
2018-09-15T05:02:56.025Z,21.24
2018-09-15T05:03:27.173Z,21.38
2018-09-15T05:03:58.296Z,21.44
2018-09-15T05:04:29.422Z,21.46
2018-09-15T05:05:00.532Z,21.47
2018-09-15T05:05:31.648Z,21.46
2018-09-15T05:06:02.782Z,21.44
2018-09-15T05:06:33.989Z,21.47
2018-09-15T05:07:05.096Z,21.47
2018-09-15T05:07:36.294Z,21.38
2018-09-15T05:08:07.403Z,21.39
2018-09-15T05:08:38.509Z,21.31
2018-09-15T05:09:09.632Z,21.36
2018-09-15T05:09:40.794Z,21.32
2018-09-15T05:10:11.900Z,21.17
2018-09-15T05:10:43.013Z,21.07
2018-09-15T05:11:14.145Z,20.97
2018-09-15T05:11:45.264Z,20.88
2018-09-15T05:12:16.463Z,20.84
2018-09-15T05:12:47.639Z,20.86
2018-09-15T05:13:18.778Z,20.78
2018-09-15T05:13:49.900Z,20.77
2018-09-15T05:14:21.014Z,20.78
2018-09-15T05:14:52.143Z,20.76
2018-09-15T05:15:23.303Z,20.72
2018-09-15T05:15:54.441Z,20.63
2018-09-15T05:16:25.574Z,20.58
2018-09-15T05:16:56.700Z,20.61
2018-09-15T05:17:27.853Z,20.62
2018-09-15T05:17:58.962Z,20.60
2018-09-15T05:18:30.150Z,20.60
2018-09-15T05:19:01.272Z,20.67
2018-09-15T05:19:32.387Z,20.71
2018-09-15T05:20:03.559Z,20.77
2018-09-15T05:20:34.667Z,20.83
2018-09-15T05:21:05.792Z,20.83
2018-09-15T05:21:36.932Z,20.82
2018-09-15T05:22:08.068Z,20.69
2018-09-15T05:22:39.196Z,20.82
2018-09-15T05:23:10.300Z,20.83
2018-09-15T05:23:41.437Z,20.81
2018-09-15T05:24:12.581Z,20.78
2018-09-15T05:24:43.673Z,20.76
2018-09-15T05:25:14.798Z,20.79
2018-09-15T05:25:45.934Z,20.78
2018-09-15T05:26:17.053Z,20.61
2018-09-15T05:26:48.203Z,20.73
2018-09-15T05:27:19.355Z,20.77
2018-09-15T05:27:50.549Z,20.73
2018-09-15T05:28:21.662Z,20.76
2018-09-15T05:28:52.825Z,20.78
2018-09-15T05:29:23.935Z,20.79
2018-09-15T05:29:55.059Z,20.75
2018-09-15T05:30:26.172Z,20.72
2018-09-15T05:30:57.289Z,20.65
2018-09-15T05:31:28.442Z,20.62
2018-09-15T05:31:59.542Z,20.64
2018-09-15T05:32:30.681Z,20.65
2018-09-15T05:33:01.818Z,20.62
2018-09-15T05:33:32.936Z,20.68
2018-09-15T05:34:04.088Z,20.62
2018-09-15T05:34:35.200Z,20.63
2018-09-15T05:35:07.140Z,20.57
2018-09-15T05:35:38.248Z,20.56
2018-09-15T05:36:09.370Z,20.48
2018-09-15T05:36:40.519Z,20.47
2018-09-15T05:37:11.652Z,20.48
2018-09-15T05:37:42.748Z,20.42
2018-09-15T05:38:13.880Z,20.44
2018-09-15T05:38:45.012Z,20.44
2018-09-15T05:39:16.188Z,20.55
2018-09-15T05:39:47.330Z,20.58
2018-09-15T05:40:18.473Z,20.60
2018-09-15T05:40:49.608Z,20.54
2018-09-15T05:41:20.755Z,20.53
2018-09-15T05:41:51.872Z,20.41
2018-09-15T05:42:22.979Z,20.38
2018-09-15T05:42:54.093Z,20.42
2018-09-15T05:43:26.126Z,20.40
2018-09-15T05:43:57.227Z,20.44
2018-09-15T05:44:28.368Z,20.48
2018-09-15T05:44:59.492Z,20.62
2018-09-15T05:45:30.614Z,20.70
2018-09-15T05:46:01.759Z,20.79
2018-09-15T05:46:32.878Z,20.86
2018-09-15T05:47:04.003Z,20.92
2018-09-15T05:47:35.150Z,20.91
2018-09-15T05:48:06.324Z,20.88
2018-09-15T05:48:37.511Z,20.92
2018-09-15T05:49:08.618Z,20.84
2018-09-15T05:49:39.789Z,21.00
2018-09-15T05:50:10.940Z,21.02
2018-09-15T05:50:42.051Z,21.05
2018-09-15T05:51:13.194Z,21.15
2018-09-15T05:51:44.322Z,21.15
2018-09-15T05:52:15.438Z,21.16
2018-09-15T05:52:46.530Z,21.15
2018-09-15T05:53:17.647Z,21.17
2018-09-15T05:53:48.781Z,21.23
2018-09-15T05:54:19.890Z,21.26
2018-09-15T05:54:51.065Z,21.27
2018-09-15T05:55:22.191Z,21.33
2018-09-15T05:55:53.334Z,21.34
2018-09-15T05:56:24.461Z,21.38
2018-09-15T05:56:55.591Z,21.44
2018-09-15T05:57:26.711Z,21.48
2018-09-15T05:57:57.857Z,21.52
2018-09-15T05:58:28.989Z,21.53
2018-09-15T05:59:00.140Z,21.56
2018-09-15T05:59:31.260Z,21.61
2018-09-15T06:00:02.399Z,21.65
2018-09-15T06:00:33.559Z,21.61
2018-09-15T06:01:04.696Z,21.56
2018-09-15T06:01:35.899Z,21.57
2018-09-15T06:02:06.997Z,21.61
2018-09-15T06:02:38.139Z,21.67
2018-09-15T06:03:09.252Z,21.71
2018-09-15T06:03:40.367Z,21.77
2018-09-15T06:04:11.504Z,21.81
2018-09-15T06:04:42.636Z,21.83
2018-09-15T06:05:13.796Z,21.87
2018-09-15T06:05:44.923Z,21.95
2018-09-15T06:06:16.025Z,22.04
2018-09-15T06:06:47.160Z,22.14
2018-09-15T06:07:18.269Z,22.23
2018-09-15T06:07:49.572Z,22.31
2018-09-15T06:08:20.569Z,22.33
2018-09-15T06:08:51.668Z,22.37
2018-09-15T06:09:22.770Z,22.40
2018-09-15T06:09:53.884Z,22.36
2018-09-15T06:10:25.007Z,22.32
2018-09-15T06:10:56.106Z,22.28
2018-09-15T06:11:27.216Z,22.25
2018-09-15T06:11:58.362Z,22.27
2018-09-15T06:12:29.483Z,22.25
2018-09-15T06:13:00.643Z,22.26
2018-09-15T06:13:31.756Z,22.24
2018-09-15T06:14:02.894Z,22.28
2018-09-15T06:14:34.065Z,22.33
2018-09-15T06:15:05.206Z,22.40
2018-09-15T06:15:36.327Z,22.43
2018-09-15T06:16:07.432Z,22.45
2018-09-15T06:16:38.534Z,22.40
2018-09-15T06:17:09.659Z,22.34
2018-09-15T06:17:40.790Z,22.31
2018-09-15T06:18:11.917Z,22.31
2018-09-15T06:18:43.023Z,22.33
2018-09-15T06:19:14.124Z,22.36
2018-09-15T06:19:45.308Z,22.38
2018-09-15T06:20:16.442Z,22.39
2018-09-15T06:20:47.592Z,22.36
2018-09-15T06:21:18.699Z,22.21
2018-09-15T06:21:49.837Z,22.10
2018-09-15T06:22:20.958Z,22.06
2018-09-15T06:22:52.062Z,22.14
2018-09-15T06:23:23.173Z,22.19
2018-09-15T06:23:54.300Z,22.24
2018-09-15T06:24:25.462Z,22.30
2018-09-15T06:24:56.626Z,22.36
2018-09-15T06:25:27.763Z,22.41
2018-09-15T06:25:58.877Z,22.45
2018-09-15T06:26:29.991Z,22.48
2018-09-15T06:27:01.124Z,22.45
2018-09-15T06:27:32.223Z,22.52
2018-09-15T06:28:03.345Z,22.44
2018-09-15T06:28:34.443Z,22.33
2018-09-15T06:29:05.610Z,22.33
2018-09-15T06:29:36.755Z,22.37
2018-09-15T06:30:07.863Z,22.43
2018-09-15T06:30:39.011Z,22.48
2018-09-15T06:31:10.144Z,22.50
2018-09-15T06:31:41.269Z,22.47
2018-09-15T06:32:12.393Z,22.41
2018-09-15T06:32:43.543Z,22.47
2018-09-15T06:33:14.642Z,22.49
2018-09-15T06:33:45.777Z,22.51
2018-09-15T06:34:16.888Z,22.50
2018-09-15T06:34:48.033Z,22.52
2018-09-15T06:35:19.167Z,22.57
2018-09-15T06:35:50.311Z,22.65
2018-09-15T06:36:21.465Z,22.71
2018-09-15T06:36:52.601Z,22.78
2018-09-15T06:37:23.703Z,22.83
2018-09-15T06:37:54.843Z,22.92
2018-09-15T06:38:25.975Z,22.95
2018-09-15T06:38:57.096Z,22.98
2018-09-15T06:39:28.269Z,22.97
2018-09-15T06:39:59.331Z,22.98
2018-09-15T06:40:30.512Z,22.98
2018-09-15T06:41:01.658Z,23.02